createdAt,value
2019-01-18T00:00:19.014Z,16.90
2019-01-18T00:02:52.056Z,17.20
2019-01-18T00:05:25.629Z,15.00
2019-01-18T00:07:59.016Z,14.83
2019-01-18T00:10:32.296Z,14.87
2019-01-18T00:13:06.422Z,14.07
2019-01-18T00:15:39.879Z,15.40
2019-01-18T00:18:12.813Z,16.73
2019-01-18T00:20:47.752Z,16.37
2019-01-18T00:23:22.883Z,15.57
2019-01-18T00:25:55.894Z,15.13
2019-01-18T00:28:29.702Z,15.07
2019-01-18T00:31:02.784Z,14.80
2019-01-18T00:33:36.443Z,15.60
2019-01-18T00:36:09.510Z,15.10
2019-01-18T00:38:42.416Z,16.17
2019-01-18T00:41:16.522Z,15.60
2019-01-18T00:43:49.452Z,18.40
2019-01-18T00:46:22.380Z,17.43
2019-01-18T00:48:55.905Z,16.63
2019-01-18T00:51:29.425Z,16.80
2019-01-18T00:54:03.864Z,18.50
2019-01-18T00:56:38.258Z,18.05
2019-01-18T00:59:11.351Z,16.57
2019-01-18T01:01:44.211Z,15.27
2019-01-18T01:04:19.117Z,15.77
2019-01-18T01:06:53.633Z,16.13
2019-01-18T01:09:26.676Z,17.47
2019-01-18T01:12:00.749Z,15.57
2019-01-18T01:14:34.281Z,17.07
2019-01-18T01:17:08.530Z,16.37
2019-01-18T01:19:42.109Z,18.00
2019-01-18T01:22:15.113Z,17.97
2019-01-18T01:24:48.105Z,18.80
2019-01-18T01:27:23.105Z,19.00
2019-01-18T01:29:56.130Z,19.90
2019-01-18T01:32:29.258Z,20.20
2019-01-18T01:35:03.710Z,20.77
2019-01-18T01:37:37.341Z,24.10
2019-01-18T01:40:16.200Z,23.30
2019-01-18T01:42:49.848Z,22.50
2019-01-18T01:45:24.240Z,24.30
2019-01-18T01:47:57.867Z,22.13
2019-01-18T01:50:32.323Z,21.08
2019-01-18T01:53:05.742Z,17.57
2019-01-18T01:55:38.769Z,17.47
2019-01-18T01:58:12.241Z,17.30
2019-01-18T02:00:45.256Z,18.10
2019-01-18T02:03:18.266Z,17.07
2019-01-18T02:05:52.698Z,17.60
2019-01-18T02:08:25.617Z,21.57
2019-01-18T02:10:58.706Z,20.67
2019-01-18T02:13:32.112Z,22.13
2019-01-18T02:16:05.808Z,21.83
2019-01-18T02:18:38.737Z,18.57
2019-01-18T02:21:12.384Z,20.43
2019-01-18T02:23:45.311Z,19.20
2019-01-18T02:26:20.147Z,20.17
2019-01-18T02:28:53.611Z,21.17
2019-01-18T02:31:26.795Z,18.90
2019-01-18T02:33:59.753Z,19.47
2019-01-18T02:36:33.303Z,21.37
2019-01-18T02:39:08.654Z,25.20
2019-01-18T02:41:41.778Z,24.53
2019-01-18T02:44:16.025Z,23.83
2019-01-18T02:46:48.946Z,26.37
2019-01-18T02:49:22.591Z,28.10
2019-01-18T02:51:57.089Z,29.03
2019-01-18T02:54:30.166Z,28.53
2019-01-18T02:57:03.237Z,30.67
2019-01-18T02:59:36.768Z,27.17
2019-01-18T03:02:09.671Z,29.07
2019-01-18T03:04:42.656Z,26.97
2019-01-18T03:07:16.050Z,26.50
2019-01-18T03:09:49.054Z,26.20
2019-01-18T03:12:22.050Z,30.15
2019-01-18T03:14:55.316Z,27.33
2019-01-18T03:17:28.181Z,28.13
2019-01-18T03:20:02.097Z,28.53
2019-01-18T03:22:35.644Z,29.12
2019-01-18T03:25:14.798Z,26.87
2019-01-18T03:27:47.723Z,26.73
2019-01-18T03:30:21.593Z,28.07
2019-01-18T03:32:54.695Z,26.30
2019-01-18T03:35:27.703Z,27.27
2019-01-18T03:38:00.999Z,29.77
2019-01-18T03:40:34.112Z,25.53
2019-01-18T03:43:07.011Z,24.60
2019-01-18T03:45:40.368Z,26.13
2019-01-18T03:48:13.304Z,24.47
2019-01-18T03:50:46.199Z,24.17
2019-01-18T03:53:19.631Z,25.03
2019-01-18T03:55:52.610Z,24.40
2019-01-18T03:58:25.612Z,24.60
2019-01-18T04:00:59.993Z,24.87
2019-01-18T04:03:33.003Z,23.97
2019-01-18T04:06:06.231Z,22.90
2019-01-18T04:08:39.870Z,24.80
2019-01-18T04:11:12.758Z,24.07
2019-01-18T04:13:45.855Z,25.60
2019-01-18T04:16:20.984Z,25.63
2019-01-18T04:18:53.979Z,24.03
2019-01-18T04:21:27.773Z,25.53
2019-01-18T04:24:03.308Z,24.23
2019-01-18T04:26:38.202Z,26.40
2019-01-18T04:29:11.412Z,25.20
2019-01-18T04:31:44.937Z,25.47
2019-01-18T04:34:18.222Z,24.63
2019-01-18T04:36:51.117Z,27.77
2019-01-18T04:39:25.088Z,26.73
2019-01-18T04:41:58.734Z,25.83
2019-01-18T04:44:31.747Z,25.17
2019-01-18T04:47:05.323Z,27.27
2019-01-18T04:49:40.770Z,28.70
2019-01-18T04:52:14.336Z,27.80
2019-01-18T04:54:47.303Z,28.63
2019-01-18T04:57:21.443Z,29.30
2019-01-18T04:59:54.333Z,31.47
2019-01-18T05:02:27.425Z,32.07
2019-01-18T05:05:00.921Z,30.90
2019-01-18T05:07:35.224Z,34.00
2019-01-18T05:10:10.338Z,32.53
2019-01-18T05:12:43.957Z,33.27
2019-01-18T05:15:20.885Z,41.17
2019-01-18T05:17:54.844Z,44.63
2019-01-18T05:20:28.655Z,47.87
2019-01-18T05:23:01.755Z,50.23
2019-01-18T05:25:34.643Z,46.60
2019-01-18T05:28:11.112Z,53.43
2019-01-18T05:30:47.592Z,48.07
2019-01-18T05:33:21.244Z,47.10
2019-01-18T05:35:54.648Z,51.20
2019-01-18T05:38:27.692Z,52.93
2019-01-18T05:41:00.940Z,51.80
2019-01-18T05:43:35.244Z,53.27
2019-01-18T05:46:08.482Z,50.83
2019-01-18T05:48:41.632Z,50.43
2019-01-18T05:51:15.886Z,54.70
2019-01-18T05:53:49.496Z,62.93
2019-01-18T05:56:23.145Z,61.43
2019-01-18T05:59:01.812Z,61.87
2019-01-18T06:01:34.743Z,66.07
2019-01-18T06:04:07.874Z,62.60
2019-01-18T06:06:42.023Z,56.63
2019-01-18T06:09:15.104Z,73.87
2019-01-18T06:11:48.794Z,70.07
2019-01-18T06:14:24.602Z,68.07
2019-01-18T06:16:57.821Z,66.43
2019-01-18T06:19:32.674Z,70.10
2019-01-18T06:22:06.509Z,73.97
2019-01-18T06:24:39.652Z,84.28
2019-01-18T06:27:12.570Z,78.00
2019-01-18T06:29:47.180Z,77.90
2019-01-18T06:32:20.154Z,75.47
2019-01-18T06:34:53.518Z,79.07
2019-01-18T06:37:26.364Z,75.30
2019-01-18T06:39:59.383Z,76.33
2019-01-18T06:42:32.463Z,74.80
2019-01-18T06:45:13.082Z,76.77
2019-01-18T06:47:47.444Z,75.57
2019-01-18T06:50:23.933Z,77.27
2019-01-18T06:52:57.219Z,84.62
2019-01-18T06:55:30.684Z,69.67
2019-01-18T06:58:04.919Z,64.30
2019-01-18T07:00:38.367Z,69.03
2019-01-18T07:03:12.174Z,70.77
2019-01-18T07:05:45.968Z,76.97
2019-01-18T07:08:19.049Z,67.43
2019-01-18T07:10:52.564Z,62.67
2019-01-18T07:13:26.518Z,67.63
2019-01-18T07:15:59.605Z,77.47
2019-01-18T07:18:36.008Z,68.47
2019-01-18T07:21:10.393Z,63.73
2019-01-18T07:23:43.983Z,60.33
2019-01-18T07:26:17.820Z,70.83
2019-01-18T07:28:52.728Z,69.83
2019-01-18T07:31:27.060Z,70.83
2019-01-18T07:34:00.769Z,75.37
2019-01-18T07:36:34.005Z,81.23
2019-01-18T07:39:09.441Z,76.30
2019-01-18T07:41:42.527Z,76.87
2019-01-18T07:44:18.327Z,116.57
2019-01-18T07:46:55.125Z,104.53
2019-01-18T07:49:30.671Z,100.63
2019-01-18T07:52:08.550Z,92.20
2019-01-18T07:54:49.631Z,99.93
2019-01-18T07:57:23.308Z,93.80
2019-01-18T07:59:56.788Z,110.57
2019-01-18T08:02:30.723Z,90.27
2019-01-18T08:05:05.238Z,79.77
2019-01-18T08:07:42.230Z,81.73
2019-01-18T08:10:17.924Z,87.40
2019-01-18T08:12:50.980Z,101.37
2019-01-18T08:15:29.085Z,82.13
2019-01-18T08:18:02.653Z,142.40
2019-01-18T08:20:37.358Z,91.13
2019-01-18T08:23:12.699Z,125.07
2019-01-18T08:25:45.869Z,83.93
2019-01-18T08:28:19.910Z,105.67
2019-01-18T08:30:53.756Z,92.30
2019-01-18T08:33:27.371Z,108.40
2019-01-18T08:36:03.689Z,101.83
2019-01-18T08:38:39.373Z,86.83
2019-01-18T08:41:12.654Z,80.20
2019-01-18T08:43:46.169Z,120.43
2019-01-18T08:46:20.693Z,129.90
2019-01-18T08:48:55.236Z,71.73
2019-01-18T08:51:28.779Z,79.87
2019-01-18T08:54:04.790Z,73.30
2019-01-18T08:56:39.570Z,68.57
2019-01-18T08:59:15.887Z,67.07
2019-01-18T09:01:49.202Z,67.27
2019-01-18T09:04:23.527Z,64.50
2019-01-18T09:06:57.205Z,66.20
2019-01-18T09:09:32.072Z,67.70
2019-01-18T09:12:09.371Z,65.10
2019-01-18T09:14:43.866Z,66.53
2019-01-18T09:17:19.559Z,61.27
2019-01-18T09:19:54.192Z,66.35
2019-01-18T09:22:29.797Z,74.93
2019-01-18T09:25:05.247Z,77.87
2019-01-18T09:27:43.765Z,77.53
2019-01-18T09:30:24.520Z,80.37
2019-01-18T09:32:58.805Z,91.40
2019-01-18T09:35:34.752Z,87.97
2019-01-18T09:38:17.868Z,86.57
2019-01-18T09:40:51.401Z,81.83
2019-01-18T09:43:27.251Z,85.13
2019-01-18T09:46:00.505Z,89.83
2019-01-18T09:48:38.996Z,83.47
2019-01-18T09:51:13.953Z,105.75
2019-01-18T09:53:52.281Z,89.47
2019-01-18T09:56:30.834Z,92.80
2019-01-18T09:59:09.672Z,94.07
2019-01-18T10:01:49.224Z,118.40
2019-01-18T10:04:38.317Z,89.60
2019-01-18T10:07:14.748Z,99.27
2019-01-18T10:09:51.160Z,80.70
2019-01-18T10:12:30.267Z,86.03
2019-01-18T10:15:14.412Z,91.50
2019-01-18T10:17:48.397Z,112.70
2019-01-18T10:20:24.935Z,88.57
2019-01-18T10:23:00.079Z,81.67
2019-01-18T10:25:33.755Z,82.97
2019-01-18T10:28:11.635Z,96.97
2019-01-18T10:30:47.813Z,97.57
2019-01-18T10:33:21.159Z,80.63
2019-01-18T10:36:09.347Z,86.70
2019-01-18T10:38:46.100Z,82.43
2019-01-18T10:41:48.695Z,79.13
2019-01-18T10:44:24.671Z,78.10
2019-01-18T10:46:59.164Z,70.57
2019-01-18T10:49:36.484Z,67.57
2019-01-18T10:52:11.435Z,67.10
2019-01-18T10:54:45.684Z,72.07
2019-01-18T10:57:20.326Z,67.33
2019-01-18T10:59:55.583Z,66.93
2019-01-18T11:02:32.259Z,58.30
2019-01-18T11:05:08.509Z,57.57
2019-01-18T11:07:48.091Z,56.97
2019-01-18T11:10:22.423Z,58.73
2019-01-18T11:12:57.846Z,54.50
2019-01-18T11:15:36.255Z,51.60
2019-01-18T11:18:10.458Z,52.78
2019-01-18T11:21:03.801Z,52.07
2019-01-18T11:23:39.549Z,48.90
2019-01-18T11:26:13.675Z,51.03
2019-01-18T11:28:47.203Z,43.70
2019-01-18T11:31:24.089Z,42.57
2019-01-18T11:33:58.485Z,36.97
2019-01-18T11:36:33.221Z,35.50
2019-01-18T11:39:12.456Z,34.97
2019-01-18T11:41:50.612Z,35.03
2019-01-18T11:44:25.632Z,36.13
2019-01-18T11:47:04.605Z,36.37
2019-01-18T11:49:39.316Z,39.67
2019-01-18T11:52:15.056Z,38.70
2019-01-18T11:54:50.005Z,36.50
2019-01-18T11:57:30.749Z,36.67
2019-01-18T12:00:08.377Z,35.73
2019-01-18T12:02:47.093Z,41.00
2019-01-18T12:05:20.823Z,32.20
2019-01-18T12:08:01.621Z,30.53
2019-01-18T12:10:44.206Z,31.27
2019-01-18T12:13:27.075Z,31.90
2019-01-18T12:16:07.645Z,33.90
2019-01-18T12:18:41.626Z,30.33
2019-01-18T12:21:15.362Z,29.87
2019-01-18T12:23:49.428Z,34.53
2019-01-18T12:26:28.478Z,33.38
2019-01-18T12:29:03.100Z,31.57
2019-01-18T12:31:40.861Z,32.97
2019-01-18T12:34:15.089Z,30.17
2019-01-18T12:36:59.006Z,30.67
2019-01-18T12:39:34.998Z,28.43
2019-01-18T12:42:08.409Z,29.83
2019-01-18T12:44:44.564Z,34.45
2019-01-18T12:47:19.398Z,33.53
2019-01-18T12:49:54.988Z,30.75
2019-01-18T12:52:29.986Z,27.60
2019-01-18T12:55:04.842Z,26.83
2019-01-18T12:57:40.034Z,24.17
2019-01-18T13:00:21.304Z,20.77
2019-01-18T13:02:56.261Z,20.00
2019-01-18T13:05:38.267Z,19.60
2019-01-18T13:08:11.322Z,19.85
2019-01-18T13:10:48.392Z,18.27
2019-01-18T13:13:25.516Z,18.33
2019-01-18T13:16:29.951Z,18.07
2019-01-18T13:19:22.899Z,20.00
2019-01-18T13:22:00.174Z,20.63
2019-01-18T13:24:38.021Z,20.13
2019-01-18T13:27:12.983Z,19.60
2019-01-18T13:29:46.474Z,16.73
2019-01-18T13:32:20.342Z,16.40
2019-01-18T13:34:56.368Z,14.43
2019-01-18T13:37:31.753Z,12.90
2019-01-18T13:40:13.600Z,11.23
2019-01-18T13:42:47.698Z,11.67
2019-01-18T13:45:24.392Z,12.23
2019-01-18T13:47:59.620Z,11.57
2019-01-18T13:50:33.493Z,10.60
2019-01-18T13:53:08.653Z,10.73
2019-01-18T13:55:42.632Z,10.90
2019-01-18T13:58:16.649Z,11.37
2019-01-18T14:00:51.993Z,14.53
2019-01-18T14:03:26.502Z,15.77
2019-01-18T14:06:01.856Z,15.93
2019-01-18T14:08:34.976Z,19.47
2019-01-18T14:11:20.120Z,16.67
2019-01-18T14:13:53.684Z,16.40
2019-01-18T14:16:28.920Z,16.90
2019-01-18T14:19:02.521Z,16.63
2019-01-18T14:21:39.537Z,18.73
2019-01-18T14:24:15.737Z,17.23
2019-01-18T14:26:55.325Z,20.13
2019-01-18T14:29:30.086Z,18.87
2019-01-18T14:32:05.675Z,19.57
2019-01-18T14:34:39.657Z,20.27
2019-01-18T14:37:16.617Z,20.87
2019-01-18T14:39:51.998Z,19.67
2019-01-18T14:42:25.088Z,18.23
2019-01-18T14:45:00.342Z,19.17
2019-01-18T14:47:36.321Z,18.20
2019-01-18T14:50:17.932Z,21.23
2019-01-18T14:52:59.360Z,19.50
2019-01-18T14:55:32.713Z,20.87
2019-01-18T14:58:11.489Z,20.37
2019-01-18T15:00:52.350Z,20.10
2019-01-18T15:03:30.943Z,21.40
2019-01-18T15:06:10.090Z,21.70
2019-01-18T15:08:48.322Z,21.80
2019-01-18T15:11:23.798Z,22.15
2019-01-18T15:13:57.756Z,22.63
2019-01-18T15:16:35.674Z,23.43
2019-01-18T15:19:09.864Z,23.55
2019-01-18T15:21:43.456Z,23.40
2019-01-18T15:24:21.331Z,24.60
2019-01-18T15:26:56.444Z,24.60
2019-01-18T15:29:35.265Z,24.40
2019-01-18T15:32:11.533Z,24.00
2019-01-18T15:34:45.661Z,25.00
2019-01-18T15:37:22.574Z,24.67
2019-01-18T15:39:55.490Z,25.37
2019-01-18T15:42:28.675Z,26.50
2019-01-18T15:45:07.973Z,27.80
2019-01-18T15:47:47.253Z,24.93
2019-01-18T15:50:31.612Z,27.77
2019-01-18T15:53:06.861Z,27.73
2019-01-18T15:55:42.911Z,29.00
2019-01-18T15:58:18.439Z,28.53
2019-01-18T16:00:54.986Z,26.50
2019-01-18T16:03:30.380Z,29.47
2019-01-18T16:06:04.566Z,29.23
2019-01-18T16:08:40.420Z,30.02
2019-01-18T16:11:14.899Z,30.87
2019-01-18T16:13:47.958Z,27.60
2019-01-18T16:16:51.396Z,29.33
2019-01-18T16:19:45.636Z,28.17
2019-01-18T16:22:21.260Z,27.57
2019-01-18T16:24:54.758Z,28.33
2019-01-18T16:27:31.546Z,26.17
2019-01-18T16:30:18.542Z,27.57
2019-01-18T16:32:51.736Z,28.13
2019-01-18T16:35:28.200Z,29.13
2019-01-18T16:38:02.212Z,29.03
2019-01-18T16:40:36.554Z,30.13
2019-01-18T16:43:22.892Z,29.23
2019-01-18T16:45:58.477Z,29.57
2019-01-18T16:48:32.499Z,30.23
2019-01-18T16:51:06.381Z,30.83
2019-01-18T16:53:40.828Z,28.50
2019-01-18T16:56:19.338Z,27.37
2019-01-18T16:58:52.317Z,27.73
2019-01-18T17:01:27.159Z,27.73
2019-01-18T17:04:02.046Z,27.80
2019-01-18T17:06:36.989Z,29.57
2019-01-18T17:09:10.380Z,26.70
2019-01-18T17:11:46.573Z,26.13
2019-01-18T17:14:21.272Z,26.07
2019-01-18T17:16:55.972Z,25.80
2019-01-18T17:19:33.563Z,24.63
2019-01-18T17:22:07.664Z,24.63
2019-01-18T17:24:41.195Z,24.93
2019-01-18T17:27:16.278Z,25.23
2019-01-18T17:29:52.378Z,24.47
2019-01-18T17:32:26.581Z,24.03
2019-01-18T17:35:01.422Z,26.40
2019-01-18T17:37:42.801Z,24.27
2019-01-18T17:40:46.122Z,24.37
2019-01-18T17:44:14.211Z,24.52
2019-01-18T17:47:09.706Z,25.83
2019-01-18T17:50:47.867Z,25.50
2019-01-18T17:54:16.330Z,25.73
2019-01-18T17:57:40.657Z,24.50
2019-01-18T18:01:10.481Z,24.57
2019-01-18T18:04:22.443Z,26.53
2019-01-18T18:07:51.482Z,25.93
2019-01-18T18:11:21.609Z,24.02
2019-01-18T18:15:05.533Z,22.50
2019-01-18T18:18:17.342Z,22.77
2019-01-18T18:21:40.169Z,23.40
2019-01-18T18:24:51.390Z,20.80
2019-01-18T18:28:33.393Z,20.53
2019-01-18T18:31:29.855Z,18.33
2019-01-18T18:34:48.227Z,18.90
2019-01-18T18:38:22.908Z,18.37
2019-01-18T18:41:59.500Z,18.53
2019-01-18T18:45:13.580Z,18.13
2019-01-18T18:48:13.116Z,22.27
2019-01-18T18:51:28.760Z,17.70
2019-01-18T18:54:56.004Z,17.07
2019-01-18T18:58:22.954Z,15.23
2019-01-18T19:01:35.469Z,16.40
2019-01-18T19:04:43.681Z,16.47
2019-01-18T19:08:16.073Z,16.70
2019-01-18T19:11:34.415Z,17.07
2019-01-18T19:14:58.810Z,18.87
2019-01-18T19:18:33.126Z,17.40
2019-01-18T19:22:07.157Z,18.80
2019-01-18T19:25:29.076Z,18.27
2019-01-18T19:29:00.645Z,18.67
2019-01-18T19:32:29.305Z,18.80
2019-01-18T19:36:00.488Z,17.13
2019-01-18T19:39:15.718Z,18.45
2019-01-18T19:42:24.219Z,16.97
2019-01-18T19:45:44.293Z,17.47
2019-01-18T19:49:03.661Z,20.10
2019-01-18T19:52:20.145Z,18.03
2019-01-18T19:55:21.909Z,18.63
2019-01-18T19:58:41.358Z,18.33
2019-01-18T20:01:36.471Z,18.17
2019-01-18T20:05:04.602Z,17.87
2019-01-18T20:08:10.517Z,19.33
2019-01-18T20:11:12.774Z,17.53
2019-01-18T20:15:06.424Z,19.00
2019-01-18T20:18:33.334Z,24.67
2019-01-18T20:21:48.496Z,24.30
2019-01-18T20:25:16.172Z,18.97
2019-01-18T20:28:29.502Z,20.63
2019-01-18T20:32:02.682Z,19.17
2019-01-18T20:35:55.590Z,20.65
2019-01-18T20:39:41.213Z,20.48
2019-01-18T20:42:56.639Z,19.33
2019-01-18T20:46:21.215Z,19.93
2019-01-18T20:49:41.122Z,22.27
2019-01-18T20:53:15.139Z,23.47
2019-01-18T20:56:28.902Z,22.13
2019-01-18T20:59:58.503Z,21.43
2019-01-18T21:03:55.146Z,21.87
2019-01-18T21:07:01.373Z,20.87
2019-01-18T21:10:04.299Z,21.43
2019-01-18T21:13:35.770Z,20.67
2019-01-18T21:16:40.821Z,21.00
2019-01-18T21:20:12.664Z,21.37
2019-01-18T21:23:26.612Z,19.67
2019-01-18T21:26:53.844Z,20.88
2019-01-18T21:30:25.425Z,20.52
2019-01-18T21:33:48.475Z,20.53
2019-01-18T21:37:03.603Z,18.70
2019-01-18T21:40:32.329Z,19.40
2019-01-18T21:43:53.948Z,19.80
2019-01-18T21:46:55.252Z,20.93
2019-01-18T21:50:26.395Z,21.67
2019-01-18T21:53:40.841Z,20.17
2019-01-18T21:56:57.368Z,19.77
2019-01-18T22:00:30.382Z,19.58
2019-01-18T22:03:57.491Z,17.43
2019-01-18T22:07:05.351Z,18.97
2019-01-18T22:10:23.727Z,18.33
2019-01-18T22:13:51.691Z,17.87
2019-01-18T22:17:21.333Z,17.83
2019-01-18T22:20:42.075Z,21.70
2019-01-18T22:24:01.498Z,19.75
2019-01-18T22:27:42.743Z,19.85
2019-01-18T22:30:54.730Z,18.97
2019-01-18T22:33:53.777Z,20.10
2019-01-18T22:37:21.231Z,18.80
2019-01-18T22:40:55.952Z,19.67
2019-01-18T22:44:05.258Z,18.00
2019-01-18T22:47:02.792Z,20.20
2019-01-18T22:49:58.292Z,20.73
2019-01-18T22:53:33.782Z,19.87
2019-01-18T22:57:13.745Z,20.55
2019-01-18T23:00:31.483Z,19.80
2019-01-18T23:03:48.440Z,17.60
2019-01-18T23:07:34.768Z,18.48
2019-01-18T23:11:20.722Z,17.73
2019-01-18T23:14:40.003Z,18.37
2019-01-18T23:18:08.146Z,19.02
2019-01-18T23:21:27.620Z,17.60
2019-01-18T23:24:26.613Z,16.70
2019-01-18T23:27:27.113Z,15.53
2019-01-18T23:30:42.473Z,16.47
2019-01-18T23:33:52.492Z,16.20
2019-01-18T23:37:03.182Z,16.03
2019-01-18T23:40:24.066Z,15.80
2019-01-18T23:43:40.275Z,15.03
2019-01-18T23:47:03.634Z,14.50
2019-01-18T23:50:00.473Z,15.07
2019-01-18T23:53:15.647Z,14.38
2019-01-18T23:56:30.477Z,13.17
2019-01-18T23:59:35.877Z,11.93
